PWSweather.com
Personal Weather Stations
Station Observations
JOE4SPEED
Jupiter, Fl, Jupiter, FL 33458

Jupiter, FlJupiter, FL 33458

Lat: 26.9373, Lon: -80.1101

Elevation: 12

Station Type: Davis VP 2

http://www.joe4speed.com/wxindex.php

Latest ConditionsUpdated 10:10:25 AM EDT Tuesday, Apr 28, 2015
Currently Today's Max Today's Min Today's Average
Temperature 79.3°F26.3°C 79.3°F26.3°C 71.0°F21.7°C 73.1°F22.8°C
Dew Point 74.0°F23.3°C 74.0°F23.3°C 68.2°F20.1°C 70.3°F21.3°C
Winds 4.0 mph SE6.4 kmh SE 5.4 mph SE8.7 kmh SE - 0.9 mph 1.4 kmh
Wind Gusts 6.0 mph9.7 kmh 9.0 mph14.5 kmh - -
Humidity 84% 92% 84% 91%
Pressure 29.79 in1008.8 mb 29.86 in1011.2 mb 29.76 in1007.8 mb -
Hour Temp Dew Point Humidity Winds Wind Gusts Pressure Precip Precip Rate Daily Precip Total
10:10 AM 79.3°F26.3°C 74.0°F23.3°C 84% 4.0 mph SE6.4 kmh SE 6.0 mph9.7 kmh 29.79 in1008.8 mb - 0.00 in0.0 mm 0.00 in0.0 mm
10:00 AM 78.9°F26.1°C 74.0°F23.3°C 85% 5.4 mph SE8.7 kmh SE 9.0 mph14.5 kmh 29.79 in1008.8 mb - 0.00 in0.0 mm 0.00 in0.0 mm
09:50 AM 78.3°F25.7°C 73.8°F23.2°C 86% 3.7 mph SSE6.0 kmh SSE 5.0 mph8.0 kmh 29.79 in1008.8 mb - 0.00 in0.0 mm 0.00 in0.0 mm
09:40 AM 77.8°F25.4°C 74.0°F23.3°C 88% 3.6 mph SSE5.8 kmh SSE 5.0 mph8.0 kmh 29.80 in1009.1 mb - 0.00 in0.0 mm 0.00 in0.0 mm
09:30 AM 77.3°F25.2°C 73.8°F23.2°C 89% 3.8 mph SE6.1 kmh SE 6.0 mph9.7 kmh 29.80 in1009.1 mb - 0.00 in0.0 mm 0.00 in0.0 mm
09:20 AM 76.6°F24.8°C 73.4°F23.0°C 90% 3.0 mph SE4.8 kmh SE 4.0 mph6.4 kmh 29.80 in1009.1 mb - 0.00 in0.0 mm 0.00 in0.0 mm
09:10 AM 76.1°F24.5°C 73.0°F22.8°C 90% 3.2 mph S5.1 kmh S 6.0 mph9.7 kmh 29.80 in1009.1 mb - 0.00 in0.0 mm 0.00 in0.0 mm
09:00 AM 76.0°F24.4°C 73.2°F22.9°C 91% 3.7 mph SE6.0 kmh SE 8.0 mph12.9 kmh 29.80 in1009.1 mb - 0.00 in0.0 mm 0.00 in0.0 mm
08:50 AM 75.9°F24.4°C 73.4°F23.0°C 92% 4.1 mph SE6.6 kmh SE 6.0 mph9.7 kmh 29.80 in1009.1 mb - 0.00 in0.0 mm 0.00 in0.0 mm
08:40 AM 75.6°F24.2°C 73.1°F22.8°C 92% 2.9 mph SE4.7 kmh SE 4.0 mph6.4 kmh 29.80 in1009.1 mb - 0.00 in0.0 mm 0.00 in0.0 mm
08:30 AM 75.6°F24.2°C 73.1°F22.8°C 92% 2.3 mph ESE3.7 kmh ESE 3.0 mph4.8 kmh 29.80 in1009.1 mb - 0.00 in0.0 mm 0.00 in0.0 mm
08:20 AM 74.9°F23.8°C 72.5°F22.5°C 92% Calm Calm -- 29.79 in1008.8 mb - 0.00 in0.0 mm 0.00 in0.0 mm
08:10 AM 74.3°F23.5°C 71.8°F22.1°C 92% Calm Calm -- 29.80 in1009.1 mb - 0.00 in0.0 mm 0.00 in0.0 mm
08:00 AM 73.4°F23.0°C 70.9°F21.6°C 92% Calm Calm -- 29.80 in1009.1 mb - 0.00 in0.0 mm 0.00 in0.0 mm
07:50 AM 72.8°F22.7°C 70.3°F21.3°C 92% Calm Calm -- 29.80 in1009.1 mb - 0.00 in0.0 mm 0.00 in0.0 mm
07:40 AM 72.2°F22.3°C 69.8°F21.0°C 92% Calm Calm -- 29.79 in1008.8 mb - 0.00 in0.0 mm 0.00 in0.0 mm
07:30 AM 72.1°F22.3°C 69.6°F20.9°C 92% Calm Calm -- 29.79 in1008.8 mb - 0.00 in0.0 mm 0.00 in0.0 mm
07:20 AM 71.9°F22.2°C 69.4°F20.8°C 92% Calm Calm -- 29.79 in1008.8 mb - 0.00 in0.0 mm 0.00 in0.0 mm
07:10 AM 71.8°F22.1°C 69.3°F20.7°C 92% Calm Calm -- 29.78 in1008.5 mb - 0.00 in0.0 mm 0.00 in0.0 mm
07:00 AM 71.7°F22.1°C 69.3°F20.7°C 92% Calm Calm -- 29.78 in1008.5 mb - 0.00 in0.0 mm 0.00 in0.0 mm
06:50 AM 71.6°F22.0°C 69.2°F20.7°C 92% 0.4 mph NNW0.6 kmh NNW 1.0 mph1.6 kmh 29.78 in1008.5 mb - 0.00 in0.0 mm 0.00 in0.0 mm
06:40 AM 71.6°F22.0°C 69.2°F20.7°C 92% 0.9 mph NNW1.4 kmh NNW 2.0 mph3.2 kmh 29.78 in1008.5 mb - 0.00 in0.0 mm 0.00 in0.0 mm
06:30 AM 71.3°F21.8°C 68.9°F20.5°C 92% 0.6 mph NNW1.0 kmh NNW 1.0 mph1.6 kmh 29.78 in1008.5 mb - 0.00 in0.0 mm 0.00 in0.0 mm
06:20 AM 71.1°F21.7°C 68.3°F20.2°C 91% 2.1 mph NW3.4 kmh NW 5.0 mph8.0 kmh 29.77 in1008.1 mb - 0.00 in0.0 mm 0.00 in0.0 mm
06:10 AM 71.1°F21.7°C 68.3°F20.2°C 91% Calm Calm -- 29.77 in1008.1 mb - 0.00 in0.0 mm 0.00 in0.0 mm
06:00 AM 71.1°F21.7°C 68.3°F20.2°C 91% 1.0 mph S1.6 kmh S 3.0 mph4.8 kmh 29.76 in1007.8 mb - 0.00 in0.0 mm 0.00 in0.0 mm
05:50 AM 71.2°F21.8°C 68.4°F20.2°C 91% 0.6 mph S1.0 kmh S 2.0 mph3.2 kmh 29.77 in1008.1 mb - 0.00 in0.0 mm 0.00 in0.0 mm
05:40 AM 71.3°F21.8°C 68.9°F20.5°C 92% 2.0 mph S3.2 kmh S 4.0 mph6.4 kmh 29.77 in1008.1 mb - 0.00 in0.0 mm 0.00 in0.0 mm
05:30 AM 71.4°F21.9°C 69.0°F20.6°C 92% 1.9 mph S3.1 kmh S 3.0 mph4.8 kmh 29.76 in1007.8 mb - 0.00 in0.0 mm 0.00 in0.0 mm
05:20 AM 71.3°F21.8°C 68.8°F20.4°C 92% Calm Calm -- 29.77 in1008.1 mb - 0.00 in0.0 mm 0.00 in0.0 mm
05:10 AM 71.2°F21.8°C 68.4°F20.2°C 91% Calm Calm -- 29.77 in1008.1 mb - 0.00 in0.0 mm 0.00 in0.0 mm
05:00 AM 71.0°F21.7°C 68.3°F20.2°C 91% Calm Calm -- 29.77 in1008.1 mb - 0.00 in0.0 mm 0.00 in0.0 mm
04:50 AM 71.0°F21.7°C 68.2°F20.1°C 91% Calm Calm -- 29.78 in1008.5 mb - 0.00 in0.0 mm 0.00 in0.0 mm
04:40 AM 71.1°F21.7°C 68.3°F20.2°C 91% Calm Calm -- 29.78 in1008.5 mb - 0.00 in0.0 mm 0.00 in0.0 mm
04:30 AM 71.0°F21.7°C 68.2°F20.1°C 91% Calm Calm -- 29.78 in1008.5 mb - 0.00 in0.0 mm 0.00 in0.0 mm
04:20 AM 71.1°F21.7°C 68.3°F20.2°C 91% Calm Calm -- 29.79 in1008.8 mb - 0.00 in0.0 mm 0.00 in0.0 mm
04:10 AM 71.2°F21.8°C 68.4°F20.2°C 91% Calm Calm -- 29.79 in1008.8 mb - 0.00 in0.0 mm 0.00 in0.0 mm
04:00 AM 71.3°F21.8°C 68.5°F20.3°C 91% Calm Calm -- 29.78 in1008.5 mb - 0.00 in0.0 mm 0.00 in0.0 mm
03:50 AM 71.4°F21.9°C 68.6°F20.3°C 91% Calm Calm -- 29.79 in1008.8 mb - 0.00 in0.0 mm 0.00 in0.0 mm
03:40 AM 71.5°F21.9°C 68.7°F20.4°C 91% Calm Calm -- 29.79 in1008.8 mb - 0.00 in0.0 mm 0.00 in0.0 mm
03:30 AM 71.6°F22.0°C 68.9°F20.5°C 91% Calm Calm -- 29.79 in1008.8 mb - 0.00 in0.0 mm 0.00 in0.0 mm
03:20 AM 71.7°F22.1°C 69.0°F20.6°C 91% Calm Calm -- 29.80 in1009.1 mb - 0.00 in0.0 mm 0.00 in0.0 mm
03:10 AM 71.9°F22.2°C 69.1°F20.6°C 91% Calm Calm -- 29.80 in1009.1 mb - 0.00 in0.0 mm 0.00 in0.0 mm
03:00 AM 72.0°F22.2°C 69.2°F20.7°C 91% Calm Calm -- 29.80 in1009.1 mb - 0.00 in0.0 mm 0.00 in0.0 mm
02:50 AM 72.2°F22.3°C 69.4°F20.8°C 91% Calm Calm -- 29.81 in1009.5 mb - 0.00 in0.0 mm 0.00 in0.0 mm
02:40 AM 72.4°F22.4°C 69.6°F20.9°C 91% Calm Calm -- 29.81 in1009.5 mb - 0.00 in0.0 mm 0.00 in0.0 mm
02:30 AM 72.5°F22.5°C 69.7°F20.9°C 91% 0.4 mph NNW0.6 kmh NNW 1.0 mph1.6 kmh 29.81 in1009.5 mb - 0.00 in0.0 mm 0.00 in0.0 mm
02:20 AM 72.6°F22.6°C 69.8°F21.0°C 91% 0.7 mph NNW1.1 kmh NNW 2.0 mph3.2 kmh 29.82 in1009.8 mb - 0.00 in0.0 mm 0.00 in0.0 mm
02:10 AM 72.7°F22.6°C 69.9°F21.1°C 91% 0.4 mph NNW0.6 kmh NNW 2.0 mph3.2 kmh 29.82 in1009.8 mb - 0.00 in0.0 mm 0.00 in0.0 mm
02:00 AM 72.8°F22.7°C 70.0°F21.1°C 91% Calm Calm -- 29.82 in1009.8 mb - 0.00 in0.0 mm 0.00 in0.0 mm
01:50 AM 73.1°F22.8°C 70.3°F21.3°C 91% Calm Calm -- 29.83 in1010.2 mb - 0.00 in0.0 mm 0.00 in0.0 mm
01:40 AM 73.2°F22.9°C 70.4°F21.3°C 91% 1.0 mph NNW1.6 kmh NNW 2.0 mph3.2 kmh 29.83 in1010.2 mb - 0.00 in0.0 mm 0.00 in0.0 mm
01:30 AM 73.4°F23.0°C 70.6°F21.4°C 91% 0.9 mph NNW1.4 kmh NNW 1.0 mph1.6 kmh 29.84 in1010.5 mb - 0.00 in0.0 mm 0.00 in0.0 mm
01:20 AM 73.5°F23.1°C 70.7°F21.5°C 91% 0.5 mph ENE0.8 kmh ENE 1.0 mph1.6 kmh 29.84 in1010.5 mb - 0.00 in0.0 mm 0.00 in0.0 mm
01:10 AM 73.5°F23.1°C 70.7°F21.5°C 91% Calm Calm -- 29.85 in1010.8 mb - 0.00 in0.0 mm 0.00 in0.0 mm
01:00 AM 73.5°F23.1°C 70.7°F21.5°C 91% Calm Calm 1.0 mph1.6 kmh 29.85 in1010.8 mb - 0.00 in0.0 mm 0.00 in0.0 mm
12:50 AM 73.6°F23.1°C 70.8°F21.6°C 91% Calm Calm -- 29.85 in1010.8 mb - 0.00 in0.0 mm 0.00 in0.0 mm
12:40 AM 73.6°F23.1°C 70.9°F21.6°C 91% Calm Calm -- 29.85 in1010.8 mb - 0.00 in0.0 mm 0.00 in0.0 mm
12:30 AM 73.8°F23.2°C 71.0°F21.7°C 91% Calm Calm -- 29.86 in1011.2 mb - 0.00 in0.0 mm 0.00 in0.0 mm
12:20 AM 73.8°F23.2°C 70.7°F21.5°C 90% Calm Calm -- 29.86 in1011.2 mb - 0.00 in0.0 mm 0.00 in0.0 mm
12:10 AM 73.8°F23.2°C 70.7°F21.5°C 90% Calm Calm -- 29.86 in1011.2 mb - 0.00 in0.0 mm 0.00 in0.0 mm
12:00 AM 73.9°F23.3°C 70.8°F21.6°C 90% Calm Calm -- 29.86 in1011.2 mb - 0.00 in0.0 mm 0.00 in0.0 mm